createdAt,value
2022-10-02T00:02:13.764Z,13.77
2022-10-02T00:04:54.329Z,11.88
2022-10-02T00:07:28.206Z,11.88
2022-10-02T00:10:14.448Z,11.45
2022-10-02T00:12:41.373Z,11.30
2022-10-02T00:15:19.188Z,11.25
2022-10-02T00:17:51.270Z,11.27
2022-10-02T00:20:22.457Z,9.07
2022-10-02T00:22:51.985Z,11.73
2022-10-02T00:25:29.629Z,11.82
2022-10-02T00:28:11.050Z,14.48
2022-10-02T00:30:54.224Z,16.00
2022-10-02T00:33:51.849Z,14.05
2022-10-02T00:36:28.005Z,9.52
2022-10-02T00:39:21.303Z,11.63
2022-10-02T00:42:08.253Z,14.73
2022-10-02T00:44:58.739Z,12.10
2022-10-02T00:48:14.650Z,13.43
2022-10-02T00:50:57.988Z,13.35
2022-10-02T00:53:48.837Z,22.35
2022-10-02T00:56:40.027Z,15.93
2022-10-02T00:59:21.409Z,13.18
2022-10-02T01:02:28.842Z,10.73
2022-10-02T01:04:55.846Z,14.82
2022-10-02T01:07:22.600Z,17.50
2022-10-02T01:09:49.613Z,13.75
2022-10-02T01:12:17.439Z,12.35
2022-10-02T01:14:44.128Z,13.95
2022-10-02T01:17:29.831Z,17.92
2022-10-02T01:19:59.587Z,14.27
2022-10-02T01:22:45.607Z,11.80
2022-10-02T01:25:12.751Z,16.15
2022-10-02T01:27:39.769Z,13.52
2022-10-02T01:30:12.244Z,17.35
2022-10-02T01:32:47.732Z,13.82
2022-10-02T01:35:16.710Z,11.93
2022-10-02T01:37:44.861Z,16.83
2022-10-02T01:40:25.368Z,15.55
2022-10-02T01:42:52.968Z,14.15
2022-10-02T01:45:33.948Z,17.75
2022-10-02T01:48:09.592Z,12.70
2022-10-02T01:51:26.801Z,21.77
2022-10-02T01:54:06.944Z,14.70
2022-10-02T01:57:10.623Z,23.33
2022-10-02T01:59:49.065Z,15.70
2022-10-02T02:02:29.713Z,15.65
2022-10-02T02:05:18.028Z,17.65
2022-10-02T02:07:53.751Z,14.65
2022-10-02T02:10:31.065Z,18.77
2022-10-02T02:13:26.666Z,16.45
2022-10-02T02:16:05.310Z,21.98
2022-10-02T02:18:49.127Z,18.58
2022-10-02T02:21:24.789Z,24.10
2022-10-02T02:23:52.857Z,16.17
2022-10-02T02:26:20.507Z,20.42
2022-10-02T02:28:53.210Z,19.00
2022-10-02T02:31:24.565Z,15.82
2022-10-02T02:33:59.401Z,15.85
2022-10-02T02:36:34.425Z,16.70
2022-10-02T02:39:09.031Z,17.42
2022-10-02T02:41:43.868Z,13.70
2022-10-02T02:44:24.762Z,18.00
2022-10-02T02:47:04.056Z,23.40
2022-10-02T02:49:44.318Z,15.05
2022-10-02T02:52:16.400Z,13.65
2022-10-02T02:54:50.501Z,22.30
2022-10-02T02:59:52.220Z,12.27
2022-10-02T03:02:19.010Z,14.90
2022-10-02T03:04:45.701Z,17.45
2022-10-02T03:07:17.409Z,22.67
2022-10-02T03:10:06.141Z,14.20
2022-10-02T03:12:55.182Z,19.42
2022-10-02T03:15:26.860Z,14.50
2022-10-02T03:18:31.666Z,15.90
2022-10-02T03:21:23.165Z,15.85
2022-10-02T03:23:54.349Z,19.00
2022-10-02T03:26:42.444Z,18.95
2022-10-02T03:29:26.478Z,15.43
2022-10-02T03:31:55.835Z,16.55
2022-10-02T03:34:23.759Z,13.55
2022-10-02T03:36:50.905Z,17.45
2022-10-02T03:39:25.254Z,14.30
2022-10-02T03:41:53.593Z,12.45
2022-10-02T03:44:20.647Z,18.48
2022-10-02T03:46:47.421Z,17.80
2022-10-02T03:49:14.149Z,17.17
2022-10-02T03:51:40.885Z,17.55
2022-10-02T03:54:18.167Z,15.35
2022-10-02T03:56:54.300Z,13.65
2022-10-02T03:59:40.120Z,17.45
2022-10-02T04:02:16.744Z,15.68
2022-10-02T04:04:49.868Z,15.65
2022-10-02T04:07:23.981Z,18.67
2022-10-02T04:10:07.526Z,16.50
2022-10-02T04:12:45.117Z,14.32
2022-10-02T04:15:35.490Z,12.68
2022-10-02T04:18:15.772Z,10.48
2022-10-02T04:21:04.837Z,14.93
2022-10-02T04:23:39.778Z,13.20
2022-10-02T04:26:42.066Z,11.32
2022-10-02T04:29:18.315Z,14.82
2022-10-02T04:31:52.833Z,17.42
2022-10-02T04:34:20.254Z,15.75
2022-10-02T04:37:18.312Z,17.95
2022-10-02T04:40:13.987Z,12.18
2022-10-02T04:43:11.371Z,15.60
2022-10-02T04:46:06.008Z,13.32
2022-10-02T04:51:44.782Z,15.07
2022-10-02T04:54:36.253Z,14.73
2022-10-02T04:57:21.501Z,14.73
2022-10-02T05:00:10.082Z,11.82
2022-10-02T05:03:16.386Z,10.45
2022-10-02T05:05:53.273Z,15.18
2022-10-02T05:08:44.456Z,13.38
2022-10-02T05:11:38.594Z,7.15
2022-10-02T05:14:37.969Z,15.02
2022-10-02T05:17:35.693Z,8.75
2022-10-02T05:20:25.364Z,13.98
2022-10-02T05:23:45.245Z,11.48
2022-10-02T05:26:31.617Z,11.18
2022-10-02T05:29:17.437Z,12.52
2022-10-02T05:31:53.132Z,16.13
2022-10-02T05:34:35.614Z,12.75
2022-10-02T05:37:22.888Z,13.60
2022-10-02T05:40:19.019Z,11.70
2022-10-02T05:43:11.663Z,11.98
2022-10-02T05:45:39.949Z,11.80
2022-10-02T05:48:29.808Z,13.18
2022-10-02T05:51:20.910Z,10.90
2022-10-02T05:53:57.227Z,12.10
2022-10-02T05:56:38.858Z,10.45
2022-10-02T05:59:32.512Z,11.15
2022-10-02T06:02:04.988Z,8.82
2022-10-02T06:04:40.886Z,12.20
2022-10-02T06:07:15.739Z,9.00
2022-10-02T06:09:48.429Z,9.27
2022-10-02T06:12:26.963Z,11.10
2022-10-02T06:15:28.272Z,9.77
2022-10-02T06:18:23.042Z,13.48
2022-10-02T06:23:50.413Z,10.60
2022-10-02T06:26:43.956Z,8.32
2022-10-02T06:29:22.543Z,5.95
2022-10-02T06:32:19.247Z,4.28
2022-10-02T06:34:48.112Z,6.32
2022-10-02T06:37:40.141Z,5.57
2022-10-02T06:40:54.873Z,5.18
2022-10-02T06:44:03.867Z,5.32
2022-10-02T06:46:30.525Z,4.72
2022-10-02T06:49:25.501Z,4.78
2022-10-02T06:52:12.779Z,2.83
2022-10-02T06:55:00.794Z,4.82
2022-10-02T06:57:56.884Z,10.15
2022-10-02T07:00:23.700Z,6.00
2022-10-02T07:03:18.943Z,6.97
2022-10-02T07:06:05.977Z,7.65
2022-10-02T07:09:01.838Z,3.25
2022-10-02T07:11:29.824Z,4.05
2022-10-02T07:14:38.221Z,3.03
2022-10-02T07:17:23.367Z,2.80
2022-10-02T07:20:14.138Z,3.72
2022-10-02T07:22:45.056Z,8.60
2022-10-02T07:25:22.979Z,3.38
2022-10-02T07:28:25.995Z,6.30
2022-10-02T07:31:15.641Z,5.00
2022-10-02T07:34:04.187Z,4.75
2022-10-02T07:36:51.801Z,3.53
2022-10-02T07:39:47.462Z,7.22
2022-10-02T07:42:26.417Z,4.75
2022-10-02T07:45:21.101Z,5.78
2022-10-02T07:51:01.484Z,6.18
2022-10-02T07:53:40.910Z,4.53
2022-10-02T07:56:11.778Z,7.40
2022-10-02T07:58:52.047Z,6.10
2022-10-02T08:01:24.873Z,4.68
2022-10-02T08:03:56.951Z,7.05
2022-10-02T08:06:23.619Z,5.72
2022-10-02T08:09:02.192Z,4.50
2022-10-02T08:11:47.252Z,4.10
2022-10-02T08:14:39.712Z,4.97
2022-10-02T08:17:32.146Z,3.05
2022-10-02T08:20:15.510Z,4.65
2022-10-02T08:22:58.257Z,4.65
2022-10-02T08:25:27.597Z,3.83
2022-10-02T08:28:04.024Z,3.95
2022-10-02T08:30:30.903Z,3.80
2022-10-02T08:32:58.824Z,3.88
2022-10-02T08:35:40.292Z,2.45
2022-10-02T08:38:34.942Z,2.30
2022-10-02T08:44:02.003Z,3.08
2022-10-02T08:47:09.972Z,3.63
2022-10-02T08:49:56.940Z,4.13
2022-10-02T08:53:00.505Z,4.00
2022-10-02T08:56:06.781Z,1.88
2022-10-02T08:58:57.562Z,1.50
2022-10-02T09:01:59.556Z,0.98
2022-10-02T09:04:36.240Z,4.60
2022-10-02T09:07:31.996Z,1.73
2022-10-02T09:10:35.934Z,2.75
2022-10-02T09:13:39.682Z,1.48
2022-10-02T09:16:18.529Z,2.72
2022-10-02T09:19:02.910Z,0.95
2022-10-02T09:24:24.319Z,2.95
2022-10-02T09:27:18.214Z,2.05
2022-10-02T09:30:24.395Z,2.97
2022-10-02T09:33:02.843Z,1.75
2022-10-02T09:36:07.006Z,1.40
2022-10-02T09:39:13.015Z,1.57
2022-10-02T09:41:59.226Z,2.75
2022-10-02T09:45:02.172Z,1.33
2022-10-02T09:47:50.386Z,2.42
2022-10-02T09:50:32.244Z,1.25
2022-10-02T09:53:08.135Z,0.70
2022-10-02T09:55:50.204Z,3.38
2022-10-02T09:58:57.158Z,0.90
2022-10-02T10:01:45.854Z,0.95
2022-10-02T10:04:47.623Z,2.13
2022-10-02T10:07:52.509Z,2.58
2022-10-02T10:10:44.402Z,2.08
2022-10-02T10:13:32.516Z,3.30
2022-10-02T10:16:11.203Z,0.82
2022-10-02T10:19:14.793Z,0.60
2022-10-02T10:21:52.040Z,2.60
2022-10-02T10:24:49.924Z,2.60
2022-10-02T10:27:47.481Z,2.38
2022-10-02T10:30:28.987Z,1.05
2022-10-02T10:33:40.122Z,2.83
2022-10-02T10:36:54.596Z,3.20
2022-10-02T10:39:36.341Z,1.80
2022-10-02T10:42:49.863Z,3.22
2022-10-02T10:45:36.180Z,1.50
2022-10-02T10:48:21.014Z,2.63
2022-10-02T10:51:22.831Z,2.17
2022-10-02T10:54:23.063Z,3.78
2022-10-02T10:56:53.578Z,5.60
2022-10-02T10:59:44.631Z,3.85
2022-10-02T11:02:52.331Z,2.42
2022-10-02T11:05:34.063Z,4.95
2022-10-02T11:08:20.487Z,3.95
2022-10-02T11:10:56.040Z,5.22
2022-10-02T11:13:37.731Z,3.63
2022-10-02T11:16:44.147Z,2.50
2022-10-02T11:19:41.781Z,2.85
2022-10-02T11:22:15.164Z,4.20
2022-10-02T11:24:48.907Z,2.78
2022-10-02T11:27:53.364Z,2.10
2022-10-02T11:30:25.329Z,3.65
2022-10-02T11:33:12.869Z,3.53
2022-10-02T11:35:58.801Z,2.42
2022-10-02T11:38:52.075Z,4.03
2022-10-02T11:41:43.769Z,4.40
2022-10-02T11:44:42.656Z,5.55
2022-10-02T11:47:29.501Z,4.40
2022-10-02T11:50:39.826Z,3.00
2022-10-02T11:53:44.520Z,2.08
2022-10-02T11:56:29.328Z,1.77
2022-10-02T11:59:18.340Z,3.28
2022-10-02T12:01:55.473Z,3.75
2022-10-02T12:04:33.588Z,2.58
2022-10-02T12:07:27.432Z,6.13
2022-10-02T12:10:52.752Z,6.00
2022-10-02T12:13:25.764Z,5.35
2022-10-02T12:16:22.557Z,4.35
2022-10-02T12:19:11.190Z,9.00
2022-10-02T12:22:02.598Z,6.57
2022-10-02T12:25:12.964Z,4.50
2022-10-02T12:28:03.346Z,8.60
2022-10-02T12:30:53.042Z,4.25
2022-10-02T12:33:50.716Z,7.38
2022-10-02T12:36:38.583Z,7.78
2022-10-02T12:39:22.246Z,4.38
2022-10-02T12:42:41.079Z,3.65
2022-10-02T12:45:11.557Z,6.72
2022-10-02T12:47:55.817Z,6.75
2022-10-02T12:50:51.727Z,4.35
2022-10-02T12:53:33.687Z,6.28
2022-10-02T12:56:22.489Z,4.97
2022-10-02T12:59:21.344Z,5.13
2022-10-02T13:02:13.218Z,6.07
2022-10-02T13:05:12.615Z,6.65
2022-10-02T13:07:51.333Z,7.55
2022-10-02T13:10:25.855Z,5.53
2022-10-02T13:13:31.713Z,6.82
2022-10-02T13:16:23.197Z,5.50
2022-10-02T13:19:15.968Z,6.50
2022-10-02T13:22:09.700Z,8.63
2022-10-02T13:25:06.817Z,6.15
2022-10-02T13:28:00.850Z,7.97
2022-10-02T13:30:39.152Z,6.63
2022-10-02T13:33:17.462Z,8.10
2022-10-02T13:35:46.917Z,9.95
2022-10-02T13:38:56.684Z,7.75
2022-10-02T13:41:50.175Z,6.63
2022-10-02T13:44:35.683Z,10.40
2022-10-02T13:47:15.039Z,8.77
2022-10-02T13:50:07.103Z,5.43
2022-10-02T13:53:20.447Z,5.07
2022-10-02T13:55:53.721Z,5.57
2022-10-02T13:59:06.993Z,6.43
2022-10-02T14:01:52.630Z,9.63
2022-10-02T14:04:46.290Z,5.78
2022-10-02T14:07:40.198Z,10.07
2022-10-02T14:10:19.556Z,3.63
2022-10-02T14:13:16.510Z,4.43
2022-10-02T14:16:12.908Z,7.05
2022-10-02T14:18:42.418Z,6.68
2022-10-02T14:21:23.408Z,6.97
2022-10-02T14:24:11.626Z,7.18
2022-10-02T14:27:21.525Z,10.15
2022-10-02T14:30:03.150Z,6.78
2022-10-02T14:32:52.650Z,5.18
2022-10-02T14:35:55.188Z,7.68
2022-10-02T14:38:45.099Z,8.10
2022-10-02T14:41:20.947Z,6.28
2022-10-02T14:43:59.066Z,5.72
2022-10-02T14:46:42.969Z,6.38
2022-10-02T14:49:47.798Z,7.13
2022-10-02T14:52:22.903Z,8.30
2022-10-02T14:55:16.139Z,6.00
2022-10-02T14:58:04.416Z,9.30
2022-10-02T15:00:50.607Z,8.65
2022-10-02T15:03:36.418Z,7.30
2022-10-02T15:06:25.709Z,7.20
2022-10-02T15:08:58.426Z,5.25
2022-10-02T15:11:36.885Z,7.88
2022-10-02T15:14:24.890Z,9.10
2022-10-02T15:17:19.731Z,7.78
2022-10-02T15:19:51.947Z,6.07
2022-10-02T15:22:35.795Z,5.35
2022-10-02T15:25:34.530Z,7.18
2022-10-02T15:28:34.501Z,8.65
2022-10-02T15:31:22.736Z,7.45
2022-10-02T15:34:17.251Z,8.68
2022-10-02T15:37:04.565Z,7.85
2022-10-02T15:40:19.316Z,7.07
2022-10-02T15:43:14.565Z,7.63
2022-10-02T15:46:21.679Z,9.35
2022-10-02T15:49:18.402Z,8.40
2022-10-02T15:52:35.011Z,4.88
2022-10-02T15:55:19.240Z,8.20
2022-10-02T15:58:15.194Z,10.23
2022-10-02T16:01:24.690Z,12.85
2022-10-02T16:04:07.888Z,9.32
2022-10-02T16:06:53.978Z,8.15
2022-10-02T16:09:45.999Z,8.73
2022-10-02T16:12:42.529Z,6.10
2022-10-02T16:15:55.936Z,6.43
2022-10-02T16:18:22.596Z,10.80
2022-10-02T16:21:13.001Z,9.38
2022-10-02T16:24:02.288Z,7.70
2022-10-02T16:26:43.967Z,5.80
2022-10-02T16:29:27.861Z,6.55
2022-10-02T16:32:02.816Z,8.63
2022-10-02T16:34:56.975Z,8.90
2022-10-02T16:37:27.191Z,11.82
2022-10-02T16:40:00.894Z,5.68
2022-10-02T16:42:30.606Z,9.48
2022-10-02T16:45:15.814Z,10.55
2022-10-02T16:47:54.273Z,11.43
2022-10-02T16:50:52.702Z,10.55
2022-10-02T16:53:34.502Z,10.98
2022-10-02T16:56:32.608Z,7.85
2022-10-02T16:59:13.585Z,10.18
2022-10-02T17:02:16.427Z,5.93
2022-10-02T17:04:59.368Z,6.45
2022-10-02T17:07:30.899Z,6.22
2022-10-02T17:10:30.886Z,8.27
2022-10-02T17:13:11.061Z,10.98
2022-10-02T17:15:53.246Z,8.35
2022-10-02T17:18:51.258Z,12.68
2022-10-02T17:21:26.078Z,9.45
2022-10-02T17:24:33.486Z,8.88
2022-10-02T17:27:16.432Z,9.57
2022-10-02T17:30:24.094Z,8.30
2022-10-02T17:33:15.903Z,9.75
2022-10-02T17:35:56.106Z,15.55
2022-10-02T17:38:25.670Z,9.20
2022-10-02T17:41:13.107Z,9.15
2022-10-02T17:43:51.032Z,10.85
2022-10-02T17:46:31.308Z,8.25
2022-10-02T17:49:32.315Z,6.82
2022-10-02T17:52:45.608Z,9.50
2022-10-02T17:55:50.225Z,7.80
2022-10-02T17:58:39.434Z,5.93
2022-10-02T18:01:17.087Z,11.65
2022-10-02T18:04:09.495Z,12.93
2022-10-02T18:06:55.304Z,10.68
2022-10-02T18:10:03.492Z,10.20
2022-10-02T18:13:07.230Z,15.32
2022-10-02T18:15:56.247Z,11.15
2022-10-02T18:18:35.432Z,10.93
2022-10-02T18:21:13.937Z,12.15
2022-10-02T18:23:57.471Z,13.88
2022-10-02T18:26:48.880Z,10.30
2022-10-02T18:29:24.441Z,10.27
2022-10-02T18:32:04.694Z,12.60
2022-10-02T18:35:08.977Z,11.00
2022-10-02T18:37:50.196Z,13.55
2022-10-02T18:40:49.213Z,17.77
2022-10-02T18:43:31.220Z,12.63
2022-10-02T18:46:03.300Z,10.95
2022-10-02T18:48:57.628Z,13.05
2022-10-02T18:51:38.136Z,11.75
2022-10-02T18:54:17.913Z,10.90
2022-10-02T18:57:07.484Z,11.23
2022-10-02T18:59:49.250Z,9.93
2022-10-02T19:02:36.986Z,9.00
2022-10-02T19:05:25.998Z,11.77
2022-10-02T19:08:04.386Z,6.60
2022-10-02T19:10:31.053Z,7.47
2022-10-02T19:13:29.196Z,10.35
2022-10-02T19:16:01.176Z,9.07
2022-10-02T19:18:30.209Z,10.73
2022-10-02T19:21:06.738Z,7.90
2022-10-02T19:23:45.513Z,9.32
2022-10-02T19:26:33.132Z,9.68
2022-10-02T19:29:15.805Z,11.05
2022-10-02T19:31:49.086Z,10.60
2022-10-02T19:34:27.697Z,9.27
2022-10-02T19:36:58.796Z,9.10
2022-10-02T19:39:33.259Z,9.98
2022-10-02T19:42:13.201Z,9.27
2022-10-02T19:44:46.397Z,10.48
2022-10-02T19:47:29.422Z,13.50
2022-10-02T19:50:00.056Z,12.88
2022-10-02T19:52:44.449Z,11.80
2022-10-02T19:57:48.965Z,12.60
2022-10-02T20:00:18.403Z,13.85
2022-10-02T20:02:48.670Z,10.60
2022-10-02T20:05:29.544Z,11.48
2022-10-02T20:08:06.562Z,11.10
2022-10-02T20:10:39.990Z,10.52
2022-10-02T20:13:26.556Z,12.73
2022-10-02T20:16:38.239Z,14.23
2022-10-02T20:19:07.723Z,11.25
2022-10-02T20:21:40.292Z,13.55
2022-10-02T20:24:37.329Z,14.52
2022-10-02T20:27:12.264Z,10.75
2022-10-02T20:29:47.001Z,13.50
2022-10-02T20:32:16.588Z,11.95
2022-10-02T20:34:50.531Z,15.82
2022-10-02T20:37:22.246Z,13.57
2022-10-02T20:40:02.277Z,10.88
2022-10-02T20:42:35.549Z,15.02
2022-10-02T20:45:02.341Z,17.10
2022-10-02T20:48:03.096Z,21.73
2022-10-02T20:50:56.470Z,17.08
2022-10-02T20:53:26.156Z,12.88
2022-10-02T20:56:10.852Z,15.77
2022-10-02T20:59:04.388Z,15.10
2022-10-02T21:02:08.675Z,13.15
2022-10-02T21:05:07.516Z,11.48
2022-10-02T21:08:04.890Z,15.82
2022-10-02T21:11:07.258Z,13.25
2022-10-02T21:14:10.862Z,14.15
2022-10-02T21:17:02.210Z,13.43
2022-10-02T21:19:47.503Z,16.88
2022-10-02T21:22:19.926Z,14.43
2022-10-02T21:25:25.190Z,18.08
2022-10-02T21:28:19.506Z,16.60
2022-10-02T21:31:17.436Z,11.52
2022-10-02T21:34:16.468Z,12.85
2022-10-02T21:36:52.964Z,15.48
2022-10-02T21:39:54.840Z,16.85
2022-10-02T21:42:46.570Z,12.30
2022-10-02T21:45:24.066Z,14.40
2022-10-02T21:48:26.330Z,15.98
2022-10-02T21:51:34.160Z,16.52
2022-10-02T21:54:21.955Z,20.90
2022-10-02T21:57:25.939Z,13.90
2022-10-02T22:00:16.164Z,12.00
2022-10-02T22:02:54.227Z,18.27
2022-10-02T22:05:42.085Z,15.93
2022-10-02T22:08:23.732Z,18.10
2022-10-02T22:11:12.359Z,17.23
2022-10-02T22:13:41.006Z,16.55
2022-10-02T22:16:47.769Z,20.45
2022-10-02T22:19:48.232Z,18.10
2022-10-02T22:22:28.067Z,12.73
2022-10-02T22:25:09.060Z,9.73
2022-10-02T22:28:10.292Z,17.30
2022-10-02T22:31:13.957Z,11.57
2022-10-02T22:34:03.735Z,15.30
2022-10-02T22:37:04.287Z,11.70
2022-10-02T22:39:33.657Z,14.27
2022-10-02T22:42:27.809Z,15.68
2022-10-02T22:45:22.863Z,16.17
2022-10-02T22:48:12.592Z,12.07
2022-10-02T22:51:09.569Z,17.23
2022-10-02T22:53:44.404Z,12.18
2022-10-02T22:56:40.653Z,21.75
2022-10-02T22:59:29.831Z,10.93
2022-10-02T23:02:34.195Z,17.08
2022-10-02T23:05:07.125Z,21.05
2022-10-02T23:07:45.259Z,15.70
2022-10-02T23:10:41.109Z,19.33
2022-10-02T23:13:26.484Z,12.57
2022-10-02T23:16:10.090Z,15.50
2022-10-02T23:18:52.095Z,12.75
2022-10-02T23:22:05.188Z,12.05
2022-10-02T23:24:51.389Z,21.40
2022-10-02T23:27:38.407Z,17.48
2022-10-02T23:30:17.355Z,13.30
2022-10-02T23:32:52.239Z,14.00
2022-10-02T23:35:35.966Z,15.70
2022-10-02T23:38:24.507Z,15.15
2022-10-02T23:41:27.982Z,14.20
2022-10-02T23:44:17.275Z,16.13
2022-10-02T23:46:45.273Z,15.13
2022-10-02T23:49:12.901Z,15.90
2022-10-02T23:52:03.016Z,14.73
2022-10-02T23:54:45.328Z,11.93
2022-10-02T23:57:36.962Z,18.25
